• Join FlightAware (Why Join?)
  • Login
  • US Flag 
06:01PM EDT


 

Airport Tracker/Info


-or-


 

Live Flight TrackerFlight Track Log ✈ OPT429 ✈ 29-Jul-2014 ✈ KUES - KTEB

Flight Track Log - Related Links

Times and Time Zones

All times are in EDT time to prevent confusion due to time zone crossing. See the OPT429 flight status page for this flight to view local times or setup timezone preferences in your user account.

Time Position Orientation Groundspeed Altitude Reporting Facility
EDT Latitude Longitude Course Direction KTS MPH feet Rate Location/Type
01:47PM 43.0500 -88.2500 206° Southwest 159 183 1,600  Level KMKE
01:48PM 43.0000 -88.2833 206° Southwest 221 254 4,900 2,400 Climbing KMKE
01:49PM 42.9500 -88.2500 154° Southeast 260 299 6,900 1,740 Climbing KMKE
01:50PM 42.9217 -88.2075 132° Southeast 271 312 7,500 2,220 Climbing Chicago Center
01:51PM 42.9178 -88.0931 93° East 299 344 10,500 2,520 Climbing Chicago Center
01:52PM 42.9144 -87.9703 92° East 321 369 12,800 2,280 Climbing Chicago Center
01:53PM 42.9086 -87.8392 93° East 340 391 15,300 2,400 Climbing Chicago Center
01:54PM 42.9022 -87.6772 93° East 358 412 17,900 2,280 Climbing Chicago Center
01:55PM 42.8953 -87.5372 94° East 368 423 20,100 2,040 Climbing Chicago Center
01:56PM 42.8892 -87.3931 93° East 379 436 22,200 2,160 Climbing Chicago Center
01:57PM 42.8825 -87.2367 93° East 383 441 24,600 1,980 Climbing Chicago Center
01:58PM 42.8742 -87.0856 94° East 397 457 26,400 1,680 Climbing Chicago Center
01:59PM 42.8681 -86.9286 93° East 411 473 28,200 1,680 Climbing Chicago Center
02:00PM 42.8592 -86.7683 94° East 421 484 30,000 1,500 Climbing Chicago Center
02:01PM 42.8511 -86.6075 94° East 425 489 31,400 1,440 Climbing Chicago Center
02:02PM 42.8400 -86.4114 94° East 434 499 33,000 1,200 Climbing Chicago Center
02:03PM 42.8303 -86.2469 95° East 438 504 34,000 960 Climbing Chicago Center
02:04PM 42.8208 -86.0794 94° East 446 513 35,000 900 Climbing Chicago Center
02:05PM 42.8117 -85.9114 94° East 453 521 35,900 900 Climbing Chicago Center
02:06PM 42.7994 -85.7094 95° East 453 521 36,900 840 Climbing Chicago Center
02:07PM 42.7894 -85.5403 95° East 453 521 37,700 720 Climbing Chicago Center
02:08PM 42.7644 -85.3750 102° East 452 520 38,400 540 Climbing Chicago Center
02:09PM 42.7331 -85.2089 104° East 453 521 38,900 480 Climbing Chicago Center
02:10PM 42.7008 -85.0447 105° East 452 520 39,400 480 Climbing Chicago Center
02:11PM 42.6631 -84.8472 105° East 452 520 39,900 420 Climbing Chicago Center
02:12PM 42.6431 -84.7497 106° East 451 519 40,200 360 Climbing Cleveland Center
02:13PM 42.6214 -84.5583 99° East 448 516 40,600 240 Climbing Cleveland Center
02:14PM 42.6064 -84.3925 97° East 446 513 40,800 180 Climbing Cleveland Center
02:15PM 42.5933 -84.2256 96° East 444 511 41,000 60 Climbing Cleveland Center
02:16PM 42.5778 -84.0561 97° East 448 516 41,000  Level Cleveland Center
02:17PM 42.5633 -83.8864 97° East 450 518 41,000  Level Cleveland Center
02:18PM 42.5453 -83.6797 97° East 456 525 41,000  Level Cleveland Center
02:19PM 42.5294 -83.5064 97° East 456 525 41,000  Level Cleveland Center
02:20PM 42.5128 -83.3317 97° East 459 528 41,000  Level Cleveland Center
02:21PM 42.4964 -83.1581 97° East 459 528 41,000  Level Cleveland Center
02:22PM 42.4800 -82.9861 97° East 459 528 41,000  Level Cleveland Center
02:24PM 42.4619 -82.8103 98° East 459 528 41,000  Level Cleveland Center
02:25PM 42.4464 -82.6444 97° East 459 528 41,000  Level Cleveland Center
02:26PM 42.4256 -82.4392 98° East 459 528 41,000  Level Cleveland Center
02:27PM 42.4081 -82.2694 98° East 458 527 41,000  Level Cleveland Center
02:28PM 42.3897 -82.0942 98° East 457 526 41,000  Level Cleveland Center
02:29PM 42.3731 -81.9247 98° East 454 522 41,000  Level Cleveland Center
02:30PM 42.3536 -81.7550 99° East 453 521 41,000  Level Cleveland Center
02:31PM 42.3356 -81.5858 98° East 452 520 41,000  Level Cleveland Center
02:32PM 42.3167 -81.4156 98° East 452 520 41,000  Level Cleveland Center
02:33PM 42.2986 -81.2461 98° East 452 520 41,000  Level Cleveland Center
02:34PM 42.2761 -81.0469 99° East 452 520 41,000  Level Cleveland Center
02:35PM 42.2561 -80.8775 99° East 453 521 41,000  Level Cleveland Center
02:36PM 42.2364 -80.7064 99° East 453 521 41,000  Level Cleveland Center
02:37PM 42.2167 -80.5400 99° East 450 518 41,000  Level Cleveland Center
02:38PM 42.1967 -80.3692 99° East 452 520 41,000  Level Cleveland Center
02:39PM 42.1767 -80.2000 99° East 454 522 41,000  Level Cleveland Center
02:40PM 42.1553 -80.0308 100° East 454 522 41,000  Level Cleveland Center
02:41PM 42.1314 -79.8417 100° East 454 522 41,000  Level Cleveland Center
02:42PM 42.1106 -79.6733 99° East 457 526 41,000  Level Cleveland Center
02:43PM 42.0892 -79.5061 100° East 457 526 41,000  Level Cleveland Center
02:44PM 42.0667 -79.3389 100° East 457 526 41,000  Level Cleveland Center
02:45PM 42.0403 -79.1356 100° East 460 529 41,000  Level Cleveland Center
02:46PM 42.0175 -78.9647 100° East 461 531 41,000  Level Cleveland Center
02:47PM 41.9961 -78.7983 100° East 461 531 41,000 -480 Level Cleveland Center
02:48PM 41.9733 -78.6292 100° East 461 531 40,000 -1,080 Descending Cleveland Center
02:49PM 41.9500 -78.4614 101° East 461 531 38,800 -1,200 Descending Cleveland Center
02:50PM 41.9267 -78.2903 100° East 461 531 37,600 -1,320 Descending Cleveland Center
02:51PM 41.8978 -78.0872 101° East 462 532 36,100 -1,260 Descending Cleveland Center
02:53PM 41.8750 -77.9219 100° East 457 526 35,000 -540 Descending Cleveland Center
02:54PM 41.8414 -77.7647 106° East 443 510 35,000  Level Cleveland Center
02:55PM 41.8006 -77.6094 109° East 443 510 35,000  Level Cleveland Center
02:56PM 41.7556 -77.4375 109° East 443 510 35,000 -660 Level Cleveland Center
02:57PM 41.7144 -77.2811 109° East 446 513 33,700 -1,440 Descending Cleveland Center
02:58PM 41.6722 -77.1272 110° East 445 512 32,000 -1,620 Descending Cleveland Center
02:59PM 41.6308 -76.9736 110° East 444 511 30,400 -1,680 Descending Cleveland Center
03:00PM 41.5850 -76.8069 110° East 442 509 28,600 -1,680 Descending Cleveland Center
03:01PM 41.5431 -76.6503 110° East 448 516 27,000 -1,560 Descending Cleveland Center
03:02PM 41.5181 -76.4794 101° East 469 540 25,400 -1,620 Descending Cleveland Center
03:03PM 41.4872 -76.2819 102° East 455 524 23,500 -1,560 Descending New York Center
03:04PM 41.4278 -76.1250 117° Southeast 444 511 22,100 -1,440 Descending New York Center
03:05PM 41.3739 -75.9794 116° Southeast 436 502 20,700 -1,380 Descending New York Center
03:06PM 41.3236 -75.8403 116° Southeast 430 495 19,400 -1,320 Descending New York Center
03:07PM 41.2717 -75.6900 115° Southeast 430 495 18,100 -1,860 Descending New York Center
03:08PM 41.2275 -75.5489 113° Southeast 425 489 15,800 -2,280 Descending New York Center
03:09PM 41.1864 -75.4275 114° Southeast 407 468 13,600 -2,220 Descending New York Center
03:10PM 41.1436 -75.3006 114° Southeast 390 449 11,500 -2,160 Descending New York Center
03:11PM 41.1022 -75.1767 114° Southeast 350 403 9,400 -1,860 Descending New York Center
03:12PM 41.0686 -75.0753 114° Southeast 314 361 7,800 -1,560 Descending New York Center
03:13PM 41.0403 -74.9911 114° Southeast 286 329 6,300 -900 Descending New York Center
03:14PM 41.0044 -74.8869 114° Southeast 281 323 6,100 -300 Descending New York Center
03:15PM 41.0053 -74.7992 89° East 270 311 5,800 -1,020 Descending New York Center
03:16PM 41.0069 -74.6892 89° East 271 312 4,100 -1,380 Descending New York Center
03:17PM 41.0100 -74.6014 87° East 271 312 3,100 -600 Descending New York Center
03:18PM 41.0072 -74.4942 92° East 271 312 3,000 -60 Descending New York Center
03:19PM 40.9994 -74.4083 97° East 271 312 3,000 -120 Level New York Center
03:20PM 40.9903 -74.2981 96° East 271 312 2,800 -480 Descending New York Center
03:21PM 40.9842 -74.2208 96° East 255 293 2,100 -420 Descending New York Center
03:22PM 40.9992 -74.1336 77° East 235 270 2,000  Descending New York Center
03:23PM 40.9783 -74.0639 112° Southeast 180 207 2,100 -120 Climbing New York Center
03:24PM 40.9347 -74.0561 172° South 168 193 1,800 -660 Descending New York Center
03:25PM 40.8889 -74.0594 183° South 158 182 800 -780 Descending New York Center
03:26PM 40.8511 -74.0603 181° South 158 182 300 -540 Descending New York Center
03:28PM 40.8500 -74.0500 126° Southeast  Level FlightAware Approximate
03:35PM 40.8501 -74.0608 271° West  Level Estimated